Time;durP1;ratioP1;P1;durP2;ratioP2;P2;SDS_P1;SDS_P2;PMS_P1;PMS_P2;Temp;Humidity;BMP_temperature;BMP_pressure;BME280_temperature;BME280_humidity;BME280_pressure;Samples;Min_cycle;Max_cycle;Signal;HPM_P1;HPM_P2
2023/10/18 00:01:24;;;;;;;20.67;9.70;;;;;;;;;;10350659;28;20050;-67
2023/10/18 00:06:28;;;;;;;21.75;10.15;;;;;;;;;;10348419;28;20546;-69
2023/10/18 00:11:32;;;;;;;27.05;10.38;;;;;;;;;;10350469;28;20046;-69
2023/10/18 00:16:35;;;;;;;23.65;11.50;;;;;;;;;;10360659;28;20658;-69
2023/10/18 00:21:39;;;;;;;22.08;10.27;;;;;;;;;;10348125;28;20058;-68
2023/10/18 00:26:42;;;;;;;;;;;;;;;;;;10346549;28;20041;-69
2023/10/18 00:31:45;;;;;;;20.95;9.88;;;;;;;;;;10347371;28;19929;-68
2023/10/18 00:36:49;;;;;;;22.23;11.60;;;;;;;;;;10346145;28;20030;-68
2023/10/18 00:41:54;;;;;;;23.52;10.70;;;;;;;;;;10341605;28;20766;-70
2023/10/18 00:46:57;;;;;;;26.85;10.80;;;;;;;;;;10367072;28;20546;-69
2023/10/18 00:52:01;;;;;;;22.33;10.07;;;;;;;;;;10341814;28;20382;-69
2023/10/18 00:57:05;;;;;;;25.25;10.73;;;;;;;;;;10364377;28;20402;-69
2023/10/18 01:02:13;;;;;;;21.93;11.07;;;;;;;;;;10351632;28;20038;-68
2023/10/18 01:07:20;;;;;;;27.48;10.63;;;;;;;;;;10346320;28;20476;-68
2023/10/18 01:12:25;;;;;;;22.38;11.10;;;;;;;;;;10346343;28;20391;-68
2023/10/18 01:17:27;;;;;;;;;;;;;;;;;;10348118;28;20116;-69
2023/10/18 01:22:31;;;;;;;24.90;10.10;;;;;;;;;;10344614;28;19922;-69
2023/10/18 01:27:35;;;;;;;20.73;10.07;;;;;;;;;;10342088;28;20487;-69
2023/10/18 01:32:38;;;;;;;;;;;;;;;;;;10348019;28;20049;-68
2023/10/18 01:37:43;;;;;;;20.55;9.52;;;;;;;;;;10356415;28;19936;-68
2023/10/18 01:42:48;;;;;;;21.27;10.13;;;;;;;;;;10348969;28;20149;-71
2023/10/18 01:47:52;;;;;;;23.63;11.02;;;;;;;;;;10350582;28;20042;-70
2023/10/18 01:52:56;;;;;;;28.77;11.70;;;;;;;;;;10343263;28;20132;-69
2023/10/18 01:58:00;;;;;;;25.40;11.43;;;;;;;;;;10347397;28;20038;-69
2023/10/18 02:03:03;;;;;;;;;;;;;;;;;;10348061;28;20048;-69
2023/10/18 02:08:06;;;;;;;25.05;10.55;;;;;;;;;;10347473;28;20243;-70
2023/10/18 02:13:11;;;;;;;25.80;10.75;;;;;;;;;;10345244;28;20037;-69
2023/10/18 02:18:15;;;;;;;24.20;10.70;;;;;;;;;;10348870;28;20041;-69
2023/10/18 02:23:18;;;;;;;23.02;10.55;;;;;;;;;;10346124;28;20619;-68
2023/10/18 02:28:25;;;;;;;26.80;11.10;;;;;;;;;;10342367;28;21550;-69
2023/10/18 02:33:36;;;;;;;26.35;11.95;;;;;;;;;;10341928;28;20522;-69
2023/10/18 02:38:40;;;;;;;26.10;11.73;;;;;;;;;;10334736;28;20055;-68
2023/10/18 02:43:45;;;;;;;;;;;;;;;;;;10360496;28;20125;-68
2023/10/18 02:48:51;;;;;;;23.73;10.52;;;;;;;;;;10345062;28;19929;-68
2023/10/18 02:54:00;;;;;;;23.25;11.18;;;;;;;;;;10346764;28;20042;-68
2023/10/18 02:59:07;;;;;;;24.35;10.52;;;;;;;;;;10348772;28;20042;-69
2023/10/18 03:04:14;;;;;;;25.02;11.27;;;;;;;;;;10353050;28;20447;-68
2023/10/18 03:14:39;;;;;;;20.85;10.95;;;;;;;;;;10350589;28;20083;-68
2023/10/18 03:19:45;;;;;;;25.95;11.13;;;;;;;;;;10356926;28;20521;-70
2023/10/18 03:24:53;;;;;;;28.52;12.27;;;;;;;;;;10347154;28;20042;-69
2023/10/18 03:29:58;;;;;;;25.90;12.13;;;;;;;;;;10350029;28;20045;-66
2023/10/18 03:35:04;;;;;;;27.52;11.57;;;;;;;;;;10351458;28;20050;-68
2023/10/18 03:40:18;;;;;;;24.55;12.07;;;;;;;;;;10353697;28;20042;-68
2023/10/18 03:45:22;;;;;;;27.27;12.85;;;;;;;;;;10353383;28;20518;-69
2023/10/18 03:50:35;;;;;;;26.83;12.77;;;;;;;;;;10359210;28;20121;-69
2023/10/18 03:55:42;;;;;;;29.00;12.45;;;;;;;;;;10355708;28;20068;-68
2023/10/18 04:00:48;;;;;;;25.33;11.75;;;;;;;;;;10356773;28;20642;-69
2023/10/18 04:05:53;;;;;;;23.77;10.70;;;;;;;;;;10357964;28;20034;-70
2023/10/18 04:10:58;;;;;;;22.63;11.55;;;;;;;;;;10342321;28;20121;-69
2023/10/18 04:16:09;;;;;;;26.63;12.00;;;;;;;;;;10351235;28;20046;-69
2023/10/18 04:21:15;;;;;;;23.52;11.52;;;;;;;;;;10356425;28;20117;-70
2023/10/18 04:26:18;;;;;;;27.15;12.43;;;;;;;;;;10347726;28;20042;-70
2023/10/18 04:31:22;;;;;;;26.15;12.95;;;;;;;;;;10350773;28;20479;-69
2023/10/18 04:36:27;;;;;;;29.00;13.27;;;;;;;;;;10350679;28;20064;-71
2023/10/18 04:41:32;;;;;;;27.08;11.35;;;;;;;;;;10355508;28;20510;-68
2023/10/18 04:46:36;;;;;;;29.25;12.80;;;;;;;;;;10353667;28;20052;-68
2023/10/18 04:51:45;;;;;;;28.73;12.25;;;;;;;;;;10347828;28;20418;-68
2023/10/18 04:56:56;;;;;;;30.83;12.98;;;;;;;;;;10346863;28;20050;-69
2023/10/18 05:01:59;;;;;;;30.48;12.88;;;;;;;;;;10346798;28;20108;-68
2023/10/18 05:07:14;;;;;;;31.33;13.63;;;;;;;;;;10353046;28;20081;-68
2023/10/18 05:12:28;;;;;;;34.90;13.55;;;;;;;;;;10348032;28;20066;-68
2023/10/18 05:17:32;;;;;;;28.80;13.20;;;;;;;;;;10346863;28;20440;-69
2023/10/18 05:22:41;;;;;;;30.13;12.65;;;;;;;;;;10349261;28;20057;-68
2023/10/18 05:27:59;;;;;;;32.97;14.07;;;;;;;;;;10347157;28;20079;-68
2023/10/18 05:33:04;;;;;;;33.55;12.95;;;;;;;;;;10350541;28;20363;-70
2023/10/18 05:38:47;;;;;;;27.80;12.38;;;;;;;;;;10363697;28;20073;-70
2023/10/18 05:43:46;;;;;;;30.27;12.85;;;;;;;;;;10352338;28;20490;-70
2023/10/18 05:48:48;;;;;;;32.67;14.48;;;;;;;;;;10348624;28;20528;-69
2023/10/18 05:53:52;;;;;;;32.17;12.90;;;;;;;;;;10347721;28;20073;-71
2023/10/18 05:59:16;;;;;;;30.92;13.68;;;;;;;;;;10348694;28;20564;-70
2023/10/18 06:04:24;;;;;;;35.40;13.23;;;;;;;;;;10344263;28;20064;-71
2023/10/18 06:09:28;;;;;;;31.08;13.50;;;;;;;;;;10340372;28;20865;-69
2023/10/18 06:14:40;;;;;;;28.40;13.13;;;;;;;;;;10344495;28;20070;-68
2023/10/18 06:19:45;;;;;;;30.38;12.85;;;;;;;;;;10350840;28;20047;-69
2023/10/18 06:24:49;;;;;;;26.83;12.02;;;;;;;;;;10347652;28;20042;-71
2023/10/18 06:29:54;;;;;;;28.88;12.73;;;;;;;;;;10350897;28;20261;-70
2023/10/18 06:34:57;;;;;;;26.35;11.77;;;;;;;;;;10350101;28;20057;-68
2023/10/18 06:40:00;;;;;;;25.98;12.15;;;;;;;;;;10344271;28;20172;-70
2023/10/18 06:45:10;;;;;;;28.42;11.82;;;;;;;;;;10349544;28;20041;-68
2023/10/18 06:50:14;;;;;;;24.52;10.63;;;;;;;;;;10347762;28;20049;-69
2023/10/18 06:55:35;;;;;;;18.60;8.43;;;;;;;;;;10345926;28;20125;-71
2023/10/18 07:00:43;;;;;;;20.25;9.18;;;;;;;;;;10351087;28;20113;-68
2023/10/18 07:05:49;;;;;;;19.23;9.20;;;;;;;;;;10352357;28;22287;-68
2023/10/18 07:10:56;;;;;;;17.75;9.07;;;;;;;;;;10345191;28;20510;-69
2023/10/18 07:16:18;;;;;;;19.40;9.32;;;;;;;;;;10343931;28;20048;-68
2023/10/18 07:21:24;;;;;;;20.17;8.95;;;;;;;;;;10345841;28;20322;-69
2023/10/18 07:26:29;;;;;;;16.38;8.57;;;;;;;;;;10341092;28;20096;-69
2023/10/18 07:31:35;;;;;;;;;;;;;;;;;;10342200;28;20105;-69
2023/10/18 07:36:39;;;;;;;16.73;9.18;;;;;;;;;;10344801;28;19933;-71
2023/10/18 07:41:42;;;;;;;19.80;8.95;;;;;;;;;;10347282;28;20042;-69
2023/10/18 07:46:44;;;;;;;16.70;8.10;;;;;;;;;;10341253;28;20471;-69
2023/10/18 07:51:55;;;;;;;17.95;8.50;;;;;;;;;;10350978;28;20046;-69
2023/10/18 07:56:59;;;;;;;16.10;8.63;;;;;;;;;;10341804;28;20124;-70
2023/10/18 08:02:12;;;;;;;16.65;8.32;;;;;;;;;;10344021;28;20045;-69
2023/10/18 08:07:19;;;;;;;16.48;8.25;;;;;;;;;;10341308;28;20054;-69
2023/10/18 08:12:29;;;;;;;16.88;8.45;;;;;;;;;;10343741;28;20133;-70
2023/10/18 08:17:46;;;;;;;14.88;8.48;;;;;;;;;;10343097;28;20399;-69
2023/10/18 08:22:50;;;;;;;17.23;9.23;;;;;;;;;;10354115;28;20050;-69
2023/10/18 08:27:53;;;;;;;15.60;9.07;;;;;;;;;;10339071;28;20130;-69
2023/10/18 08:32:58;;;;;;;13.27;8.33;;;;;;;;;;10341204;28;20077;-69
2023/10/18 08:38:02;;;;;;;12.85;8.70;;;;;;;;;;10338946;28;20735;-70
2023/10/18 08:43:12;;;;;;;17.85;9.73;;;;;;;;;;10344868;28;20435;-69
2023/10/18 08:48:27;;;;;;;16.50;8.90;;;;;;;;;;10351064;28;20395;-69
2023/10/18 08:53:33;;;;;;;15.48;10.00;;;;;;;;;;10337346;28;20046;-70
2023/10/18 08:58:37;;;;;;;13.18;8.95;;;;;;;;;;10341504;28;20045;-70
2023/10/18 09:03:40;;;;;;;16.35;9.85;;;;;;;;;;10337745;28;20042;-69
2023/10/18 09:08:45;;;;;;;14.85;9.10;;;;;;;;;;10337951;28;20046;-74
2023/10/18 09:14:07;;;;;;;14.55;9.82;;;;;;;;;;10336513;28;20525;-71
2023/10/18 09:19:11;;;;;;;14.40;9.60;;;;;;;;;;10343604;28;20048;-70
2023/10/18 09:24:20;;;;;;;13.95;9.70;;;;;;;;;;10343664;28;20053;-70
2023/10/18 09:29:29;;;;;;;14.45;9.65;;;;;;;;;;10349274;28;20281;-71
2023/10/18 09:34:38;;;;;;;12.98;9.43;;;;;;;;;;10340342;28;20713;-72
2023/10/18 09:39:44;;;;;;;12.52;9.57;;;;;;;;;;10339665;28;20073;-71
2023/10/18 09:44:55;;;;;;;15.88;10.02;;;;;;;;;;10348436;28;20044;-71
2023/10/18 09:50:06;;;;;;;12.57;9.38;;;;;;;;;;10334013;28;20084;-72
2023/10/18 09:55:16;;;;;;;12.35;9.50;;;;;;;;;;10329751;28;20129;-70
2023/10/18 10:00:23;;;;;;;13.07;8.68;;;;;;;;;;10330678;28;20049;-71
2023/10/18 10:05:26;;;;;;;15.00;9.13;;;;;;;;;;10337834;28;20576;-71
2023/10/18 10:10:44;;;;;;;13.82;9.40;;;;;;;;;;10334826;28;20628;-70
2023/10/18 10:15:50;;;;;;;13.95;9.27;;;;;;;;;;10344047;28;20168;-71
2023/10/18 10:20:57;;;;;;;12.00;8.52;;;;;;;;;;10341210;28;20397;-71
2023/10/18 10:26:12;;;;;;;16.13;9.65;;;;;;;;;;10349258;28;20125;-71
2023/10/18 10:31:50;;;;;;;10.57;8.52;;;;;;;;;;10337918;28;20038;-72
2023/10/18 10:37:08;;;;;;;11.38;7.93;;;;;;;;;;10330468;28;20160;-72
2023/10/18 10:42:28;;;;;;;9.68;7.70;;;;;;;;;;10339638;28;20101;-70
2023/10/18 10:47:32;;;;;;;12.65;8.18;;;;;;;;;;10339557;28;20212;-71
2023/10/18 10:52:40;;;;;;;11.57;8.65;;;;;;;;;;10338720;28;20042;-71
2023/10/18 10:57:47;;;;;;;8.05;6.43;;;;;;;;;;10348455;28;20127;-71
2023/10/18 11:02:54;;;;;;;16.63;9.30;;;;;;;;;;10336416;28;20053;-71
2023/10/18 11:07:57;;;;;;;11.88;7.10;;;;;;;;;;10341546;28;20445;-70
2023/10/18 11:13:01;;;;;;;10.38;7.20;;;;;;;;;;10354123;28;20050;-71
2023/10/18 11:18:20;;;;;;;20.15;9.70;;;;;;;;;;10352878;28;20553;-70
2023/10/18 11:23:25;;;;;;;25.25;11.38;;;;;;;;;;10363996;28;20057;-71
2023/10/18 11:28:30;;;;;;;10.85;6.97;;;;;;;;;;10362110;28;20044;-71
2023/10/18 11:33:36;;;;;;;13.48;7.68;;;;;;;;;;10357328;28;20041;-70
2023/10/18 11:38:39;;;;;;;12.35;8.05;;;;;;;;;;10343606;28;20537;-70
2023/10/18 11:43:51;;;;;;;12.23;7.82;;;;;;;;;;10347251;28;20102;-70
2023/10/18 11:48:55;;;;;;;14.02;8.70;;;;;;;;;;10367081;28;20046;-70
2023/10/18 11:53:58;;;;;;;11.40;7.43;;;;;;;;;;10346257;28;20045;-70
2023/10/18 11:59:02;;;;;;;15.95;8.65;;;;;;;;;;10354883;28;20054;-70
2023/10/18 12:04:06;;;;;;;11.00;7.18;;;;;;;;;;10355992;28;20038;-70
2023/10/18 12:14:37;;;;;;;13.95;6.78;;;;;;;;;;10342313;28;20193;-70
2023/10/18 12:19:42;;;;;;;11.10;7.15;;;;;;;;;;10343712;28;20037;-71
2023/10/18 12:24:45;;;;;;;10.40;6.50;;;;;;;;;;10348174;28;20034;-71
2023/10/18 12:29:59;;;;;;;10.13;6.93;;;;;;;;;;10348195;28;20133;-69
2023/10/18 12:35:07;;;;;;;10.23;6.68;;;;;;;;;;10342919;28;20602;-70
2023/10/18 12:40:27;;;;;;;10.23;6.60;;;;;;;;;;10354952;28;20040;-70
2023/10/18 12:45:41;;;;;;;12.77;6.82;;;;;;;;;;10360832;28;20089;-70
2023/10/18 12:50:45;;;;;;;12.07;7.43;;;;;;;;;;10357629;28;20044;-70
2023/10/18 12:55:57;;;;;;;8.85;6.07;;;;;;;;;;10343488;28;20049;-69
2023/10/18 13:01:06;;;;;;;13.98;6.00;;;;;;;;;;10346581;28;20098;-72
2023/10/18 13:06:15;;;;;;;11.13;5.60;;;;;;;;;;10352289;28;20436;-70
2023/10/18 13:16:47;;;;;;;10.55;5.57;;;;;;;;;;10340565;28;20129;-70
2023/10/18 13:21:54;;;;;;;10.60;5.28;;;;;;;;;;10345883;28;20396;-70
2023/10/18 13:27:08;;;;;;;10.87;5.43;;;;;;;;;;10335690;28;20191;-68
2023/10/18 13:32:13;;;;;;;9.48;5.07;;;;;;;;;;10356181;28;20052;-70
2023/10/18 13:37:17;;;;;;;9.63;5.40;;;;;;;;;;10357113;28;20081;-72
2023/10/18 13:42:21;;;;;;;12.50;5.45;;;;;;;;;;10354923;28;20498;-71
2023/10/18 13:47:26;;;;;;;;;;;;;;;;;;10338467;28;20049;-70
2023/10/18 13:52:30;;;;;;;8.65;5.38;;;;;;;;;;10342726;28;20386;-71
2023/10/18 13:57:35;;;;;;;11.68;6.05;;;;;;;;;;10351317;28;20056;-71
2023/10/18 14:02:38;;;;;;;10.52;5.68;;;;;;;;;;10348299;28;20462;-71
2023/10/18 14:07:44;;;;;;;11.13;5.75;;;;;;;;;;10335158;28;20498;-71
2023/10/18 14:12:50;;;;;;;9.82;5.43;;;;;;;;;;10340143;28;20077;-71
2023/10/18 14:17:54;;;;;;;8.23;5.07;;;;;;;;;;10338246;28;20157;-71
2023/10/18 14:22:59;;;;;;;10.02;5.57;;;;;;;;;;10341176;28;20046;-71
2023/10/18 14:28:02;;;;;;;12.60;5.78;;;;;;;;;;10341219;28;20046;-71
2023/10/18 14:33:05;;;;;;;9.50;5.38;;;;;;;;;;10341287;28;20045;-71
2023/10/18 14:38:14;;;;;;;9.02;5.13;;;;;;;;;;10352489;28;20040;-74
2023/10/18 14:43:19;;;;;;;9.30;5.03;;;;;;;;;;10350971;28;20045;-74
2023/10/18 14:48:24;;;;;;;9.07;5.40;;;;;;;;;;10353813;28;20494;-72
2023/10/18 14:53:31;;;;;;;7.55;4.60;;;;;;;;;;10357203;28;20100;-71
2023/10/18 14:58:34;;;;;;;8.95;4.10;;;;;;;;;;10356530;28;20151;-71
2023/10/18 15:03:36;;;;;;;8.27;4.30;;;;;;;;;;10354940;28;20042;-70
2023/10/18 15:08:41;;;;;;;10.63;5.22;;;;;;;;;;10352421;28;20049;-71
2023/10/18 15:13:46;;;;;;;13.32;5.55;;;;;;;;;;10356141;28;20094;-71
2023/10/18 15:18:53;;;;;;;8.93;4.38;;;;;;;;;;10354502;28;20033;-71
2023/10/18 15:24:07;;;;;;;10.55;4.57;;;;;;;;;;10352427;28;20594;-72
2023/10/18 15:29:12;;;;;;;10.35;5.10;;;;;;;;;;10360393;28;20088;-70
2023/10/18 15:34:14;;;;;;;11.38;5.03;;;;;;;;;;10356150;28;20108;-69
2023/10/18 15:39:19;;;;;;;12.52;5.90;;;;;;;;;;10354300;28;20080;-70
2023/10/18 15:44:22;;;;;;;12.07;5.63;;;;;;;;;;10355240;28;20052;-70
2023/10/18 15:49:25;;;;;;;10.07;6.05;;;;;;;;;;10374976;28;20057;-71
2023/10/18 15:54:30;;;;;;;11.43;5.93;;;;;;;;;;10363857;28;20133;-70
2023/10/18 15:59:36;;;;;;;9.80;5.35;;;;;;;;;;10363272;28;20483;-71
2023/10/18 16:04:45;;;;;;;9.98;5.13;;;;;;;;;;10364508;28;20077;-72
2023/10/18 16:09:52;;;;;;;14.52;5.45;;;;;;;;;;10362345;28;20489;-71
2023/10/18 16:14:58;;;;;;;12.93;5.72;;;;;;;;;;10362892;28;20503;-71
2023/10/18 16:26:09;;;;;;;12.23;5.20;;;;;;;;;;10360732;28;20054;-72
2023/10/18 16:31:13;;;;;;;9.32;4.88;;;;;;;;;;10363582;28;20048;-74
2023/10/18 16:36:17;;;;;;;10.70;5.53;;;;;;;;;;10368453;28;20050;-72
2023/10/18 16:41:21;;;;;;;12.02;5.53;;;;;;;;;;10365074;28;20737;-71
2023/10/18 16:46:25;;;;;;;13.02;5.43;;;;;;;;;;10366380;28;20367;-70
2023/10/18 16:51:28;;;;;;;12.00;5.60;;;;;;;;;;10360834;28;20045;-70
2023/10/18 16:56:32;;;;;;;15.15;5.53;;;;;;;;;;10365199;28;20530;-70
2023/10/18 17:01:35;;;;;;;;;;;;;;;;;;10366614;28;20534;-72
2023/10/18 17:06:37;;;;;;;10.40;5.47;;;;;;;;;;10363145;28;19940;-71
2023/10/18 17:11:41;;;;;;;11.10;5.70;;;;;;;;;;10357326;28;20041;-70
2023/10/18 17:16:45;;;;;;;10.70;5.25;;;;;;;;;;10347465;28;20499;-70
2023/10/18 17:21:48;;;;;;;13.98;5.38;;;;;;;;;;10341666;28;20052;-70
2023/10/18 17:26:52;;;;;;;11.85;5.55;;;;;;;;;;10344545;28;20502;-71
2023/10/18 17:31:54;;;;;;;13.00;6.50;;;;;;;;;;10344799;28;20049;-71
2023/10/18 17:36:57;;;;;;;12.43;5.78;;;;;;;;;;10340092;28;20073;-69
2023/10/18 17:42:01;;;;;;;11.95;5.75;;;;;;;;;;10361142;28;20048;-70
2023/10/18 17:47:04;;;;;;;;;;;;;;;;;;10346641;28;20107;-70
2023/10/18 17:52:08;;;;;;;18.50;7.95;;;;;;;;;;10343408;28;19998;-71
2023/10/18 17:57:15;;;;;;;16.42;7.78;;;;;;;;;;10349556;28;20656;-70
2023/10/18 18:02:24;;;;;;;16.50;7.93;;;;;;;;;;10335509;28;20104;-71
2023/10/18 18:07:28;;;;;;;19.50;7.70;;;;;;;;;;10338204;28;20612;-69
2023/10/18 18:12:32;;;;;;;16.73;7.30;;;;;;;;;;10346061;28;20203;-72
2023/10/18 18:17:34;;;;;;;;;;;;;;;;;;10342993;28;20045;-70
2023/10/18 18:22:39;;;;;;;16.80;8.27;;;;;;;;;;10358605;28;20027;-70
2023/10/18 18:27:43;;;;;;;19.60;8.65;;;;;;;;;;10342476;28;20096;-71
2023/10/18 18:32:46;;;;;;;19.58;8.05;;;;;;;;;;10334970;28;20498;-71
2023/10/18 18:37:50;;;;;;;27.58;12.60;;;;;;;;;;10337294;28;20054;-72
2023/10/18 18:42:54;;;;;;;20.77;9.98;;;;;;;;;;10339321;28;20137;-74
2023/10/18 18:47:57;;;;;;;;;;;;;;;;;;10336579;28;20064;-73
2023/10/18 18:53:00;;;;;;;14.15;7.25;;;;;;;;;;10337204;28;19953;-73
2023/10/18 18:58:05;;;;;;;17.03;8.40;;;;;;;;;;10335201;28;20487;-75
2023/10/18 19:03:08;;;;;;;22.17;9.65;;;;;;;;;;10339426;28;20105;-73
2023/10/18 19:08:10;;;;;;;18.30;9.23;;;;;;;;;;10337600;28;20309;-72
2023/10/18 19:13:14;;;;;;;21.02;9.95;;;;;;;;;;10347012;28;20041;-71
2023/10/18 19:18:18;;;;;;;18.05;8.50;;;;;;;;;;10343953;28;20065;-70
2023/10/18 19:23:20;;;;;;;19.42;9.95;;;;;;;;;;10342056;28;20030;-73
2023/10/18 19:28:25;;;;;;;20.75;10.20;;;;;;;;;;10351187;28;20046;-75
2023/10/18 19:33:27;;;;;;;18.40;9.43;;;;;;;;;;10349522;28;20038;-70
2023/10/18 19:38:30;;;;;;;20.52;10.75;;;;;;;;;;10349077;28;20050;-72
2023/10/18 19:43:35;;;;;;;22.50;10.70;;;;;;;;;;10339283;28;20046;-73
2023/10/18 19:48:38;;;;;;;22.58;11.02;;;;;;;;;;10354037;28;20109;-71
2023/10/18 19:53:42;;;;;;;20.13;9.85;;;;;;;;;;10349525;28;20112;-71
2023/10/18 19:58:46;;;;;;;25.80;9.98;;;;;;;;;;10358481;28;20056;-72
2023/10/18 20:03:49;;;;;;;22.27;12.00;;;;;;;;;;10353306;28;20046;-73
2023/10/18 20:08:53;;;;;;;20.97;10.33;;;;;;;;;;10348389;28;20495;-72
2023/10/18 20:13:57;;;;;;;22.57;10.33;;;;;;;;;;10353546;28;20132;-73
2023/10/18 20:18:59;;;;;;;20.67;9.93;;;;;;;;;;10345468;28;20810;-73
2023/10/18 20:24:02;;;;;;;17.92;9.60;;;;;;;;;;10347525;28;20119;-71
2023/10/18 20:29:07;;;;;;;22.98;10.98;;;;;;;;;;10340744;28;20061;-76
2023/10/18 20:34:11;;;;;;;21.95;10.77;;;;;;;;;;10346069;28;20141;-73
2023/10/18 20:39:17;;;;;;;20.20;10.00;;;;;;;;;;10342191;28;20042;-72
2023/10/18 20:44:27;;;;;;;20.67;10.27;;;;;;;;;;10346769;28;20044;-72
2023/10/18 20:49:32;;;;;;;18.55;9.07;;;;;;;;;;10349937;28;20038;-71
2023/10/18 20:54:36;;;;;;;18.27;8.93;;;;;;;;;;10342796;28;20046;-73
2023/10/18 20:59:42;;;;;;;19.55;9.35;;;;;;;;;;10342286;28;20121;-77
2023/10/18 21:04:47;;;;;;;21.95;10.10;;;;;;;;;;10343154;28;20054;-76
2023/10/18 21:09:50;;;;;;;19.00;9.43;;;;;;;;;;10349448;28;20511;-71
2023/10/18 21:14:54;;;;;;;20.08;9.68;;;;;;;;;;10343301;28;20069;-70
2023/10/18 21:19:57;;;;;;;19.63;9.48;;;;;;;;;;10344230;28;20056;-70
2023/10/18 21:25:00;;;;;;;19.98;9.80;;;;;;;;;;10345889;28;20123;-70
2023/10/18 21:30:09;;;;;;;21.88;10.68;;;;;;;;;;10345485;28;20060;-71
2023/10/18 21:35:12;;;;;;;21.33;10.23;;;;;;;;;;10348284;28;20038;-69
2023/10/18 21:40:20;;;;;;;21.95;9.80;;;;;;;;;;10345056;28;20550;-69
2023/10/18 21:45:24;;;;;;;17.35;9.07;;;;;;;;;;10342848;28;20046;-70
2023/10/18 21:50:26;;;;;;;20.13;8.63;;;;;;;;;;10338693;28;20506;-70
2023/10/18 21:55:29;;;;;;;21.55;9.90;;;;;;;;;;10339862;28;20135;-70
2023/10/18 22:00:38;;;;;;;22.92;10.60;;;;;;;;;;10340256;28;20039;-69
2023/10/18 22:05:43;;;;;;;21.38;9.77;;;;;;;;;;10340264;28;20173;-69
2023/10/18 22:10:46;;;;;;;23.33;11.38;;;;;;;;;;10341287;28;20329;-69
2023/10/18 22:15:59;;;;;;;22.70;10.75;;;;;;;;;;10342769;28;20396;-70
2023/10/18 22:21:02;;;;;;;21.40;10.07;;;;;;;;;;10344645;28;20048;-69
2023/10/18 22:26:10;;;;;;;25.13;11.45;;;;;;;;;;10361326;28;20067;-70
2023/10/18 22:31:19;;;;;;;27.63;12.23;;;;;;;;;;10346272;28;20057;-69
2023/10/18 22:36:22;;;;;;;25.90;11.32;;;;;;;;;;10358386;28;20053;-69
2023/10/18 22:41:33;;;;;;;26.97;12.50;;;;;;;;;;10345532;28;20593;-70
2023/10/18 22:46:47;;;;;;;30.27;12.45;;;;;;;;;;10338020;28;20364;-71
2023/10/18 22:51:58;;;;;;;26.27;12.45;;;;;;;;;;10332082;28;20149;-70
2023/10/18 22:57:06;;;;;;;26.05;11.52;;;;;;;;;;10343730;28;20471;-70
2023/10/18 23:02:11;;;;;;;28.15;12.40;;;;;;;;;;10342297;28;20180;-69
2023/10/18 23:07:24;;;;;;;24.60;11.18;;;;;;;;;;10349214;28;20609;-69
2023/10/18 23:12:28;;;;;;;26.02;11.30;;;;;;;;;;10344307;28;20200;-68
2023/10/18 23:17:35;;;;;;;24.05;11.48;;;;;;;;;;10346613;28;20050;-69
2023/10/18 23:22:49;;;;;;;25.45;11.27;;;;;;;;;;10348345;28;20049;-68
2023/10/18 23:33:24;;;;;;;24.60;11.52;;;;;;;;;;10350215;28;20038;-70
2023/10/18 23:38:36;;;;;;;27.45;11.68;;;;;;;;;;10346110;28;20494;-69
2023/10/18 23:43:50;;;;;;;27.50;12.07;;;;;;;;;;10345868;28;20065;-70
2023/10/18 23:54:22;;;;;;;29.75;13.25;;;;;;;;;;10350432;28;20155;-69
2023/10/18 23:59:29;;;;;;;33.85;14.13;;;;;;;;;;10363956;28;20046;-70
